Flight Track Log - Related Links

Times and Time Zones

All times are in EDT time to prevent confusion due to time zone crossing. See the JBU1329 flight status page for this flight to view local times or setup timezone preferences in your user account.

Time Position Orientation Groundspeed Altitude Reporting Facility
EDT Latitude Longitude Course Direction KTS MPH feet Rate Location/Type
Mon 08:32:00 AM 42.3500 -71.0167 240° Southwest 154 177 500  Level KA90
Mon 08:33:24 AM 42.3167 -70.9667 132° Southeast 178 205 3,200 1,873 Climbing KA90
Mon 08:34:00 AM 42.4067 -70.7500 180° South  Level FlightAware Approximate
Mon 08:35:00 AM 42.3234 -70.7214 172° South  Level FlightAware Approximate
Mon 08:35:25 AM 42.3342 -70.7942 82° East 275 316 6,900  Level Boston Center
Mon 08:36:00 AM 42.2570 -70.7812 228° Southwest  Level FlightAware Approximate
Mon 08:36:25 AM 42.2853 -70.7197 132° Southeast 247 284 10,200  Level Boston Center
Mon 08:37:00 AM 42.2070 -70.8783 240° Southwest  Level FlightAware Approximate
Mon 08:37:25 AM 42.2278 -70.7831 219° Southwest 164 189 13,000  Level Boston Center
Mon 08:38:25 AM 42.2089 -70.9236 260° West 270 311 15,200 2,200 Climbing Boston Center
Mon 08:39:25 AM 42.1878 -71.0558 258° West 343 395 17,400 1,750 Climbing Boston Center
Mon 08:40:25 AM 42.1683 -71.1908 259° West 378 435 18,700 2,100 Climbing Boston Center
Mon 08:41:25 AM 42.1531 -71.3256 261° West 393 452 21,600 2,400 Climbing Boston Center
Mon 08:42:25 AM 42.1336 -71.4686 260° West 393 452 23,500 1,850 Climbing Boston Center
Mon 08:43:25 AM 42.1056 -71.6117 255° West 393 452 25,300 1,650 Climbing Boston Center
Mon 08:44:25 AM 42.0858 -71.7603 260° West 393 452 26,800 1,500 Climbing Boston Center
Mon 08:45:25 AM 42.0489 -71.9061 251° West 398 458 28,300 1,550 Climbing Boston Center
Mon 08:46:25 AM 41.9911 -72.0378 239° Southwest 404 465 29,900 1,650 Climbing Boston Center
Mon 08:47:25 AM 41.9311 -72.1667 238° Southwest 409 471 31,600 1,050 Climbing Boston Center
Mon 08:48:25 AM 41.8731 -72.2950 239° Southwest 414 476 32,000 200 Climbing Boston Center
Mon 08:49:25 AM 41.8147 -72.4233 239° Southwest 409 471 32,000  Level Boston Center
Mon 08:50:25 AM 41.7583 -72.5514 239° Southwest 409 471 32,000  Level Boston Center
Mon 08:51:25 AM 41.7019 -72.6736 238° Southwest 409 471 32,000  Level Boston Center
Mon 08:52:25 AM 41.6453 -72.8011 239° Southwest 409 471 32,000  Level Boston Center
Mon 08:53:25 AM 41.5867 -72.9258 238° Southwest 409 471 32,000  Level Boston Center
Mon 08:54:25 AM 41.5317 -73.0475 239° Southwest 404 465 32,000  Level Boston Center
Mon 08:55:25 AM 41.4769 -73.1689 239° Southwest 399 459 32,000 -100 Level Boston Center
Mon 08:56:25 AM 41.4178 -73.2925 237° Southwest 399 459 31,800 -815 Descending Boston Center
Mon 08:58:29 AM 41.2953 -73.5575 238° Southwest 399 459 29,500 -1,239 Descending New York Center
Mon 08:59:29 AM 41.2278 -73.6789 234° Southwest 411 473 28,000 -750 Descending New York Center
Mon 09:00:29 AM 41.1583 -73.7969 232° Southwest 418 481 28,000  Level New York Center
Mon 09:01:30 AM 41.0864 -73.9150 231° Southwest 418 481 28,000  Level New York Center
Mon 09:02:28 AM 41.0164 -74.0353 232° Southwest 418 481 28,000  Level New York Center
Mon 09:03:28 AM 40.9467 -74.1500 231° Southwest 413 475 28,000  Level New York Center
Mon 09:04:29 AM 40.8725 -74.2617 229° Southwest 413 475 28,000  Level New York Center
Mon 09:05:29 AM 40.8044 -74.3761 232° Southwest 413 475 28,000  Level New York Center
Mon 09:06:28 AM 40.7364 -74.4903 232° Southwest 413 475 28,000  Level New York Center
Mon 09:07:28 AM 40.6703 -74.6014 232° Southwest 408 470 28,000  Level New York Center
Mon 09:08:29 AM 40.6019 -74.7153 232° Southwest 403 464 28,000  Level New York Center
Mon 09:09:27 AM 40.5297 -74.8175 227° Southwest 403 464 28,000  Level New York Center
Mon 09:10:28 AM 40.4575 -74.9169 226° Southwest 392 451 28,000 -793 Level New York Center
Mon 09:11:28 AM 40.3872 -75.0217 229° Southwest 387 445 26,400 -2,016 Descending New York Center
Mon 09:12:30 AM 40.3147 -75.1233 227° Southwest 387 445 23,900 -2,471 Descending New York Center
Mon 09:13:27 AM 40.2442 -75.2250 228° Southwest 387 445 21,500 -2,492 Descending New York Center
Mon 09:14:28 AM 40.1694 -75.3236 225° Southwest 382 440 19,000 -1,736 Descending New York Center
Mon 09:15:28 AM 40.1058 -75.4089 226° Southwest 380 437 18,000 -492 Descending New York Center
Mon 09:16:30 AM 40.0350 -75.5100 228° Southwest 359 413 18,000  Level New York Center
Mon 09:17:28 AM 39.9822 -75.5794 225° Southwest 323 372 18,000 -1,059 Level New York Center
Mon 09:18:29 AM 39.9178 -75.6753 229° Southwest 318 366 15,900 -1,686 Descending New York Center
Mon 09:19:29 AM 39.8747 -75.7561 235° Southwest 318 366 14,600 -1,088 Descending New York Center
Mon 09:21:00 AM 39.7790 -75.8963 247° West  Level FlightAware Approximate
Mon 09:22:04 AM 39.7500 -75.9833 247° West 255 293 12,000  Level Potomac TRACON
Mon 09:23:04 AM 39.7167 -76.0500 237° Southwest 238 274 12,000  Level Potomac TRACON
Mon 09:24:04 AM 39.6833 -76.1167 237° Southwest 239 275 12,000 -500 Level Potomac TRACON
Mon 09:25:04 AM 39.6667 -76.2167 258° West 243 280 11,000 -842 Descending Potomac TRACON
Mon 09:25:58 AM 39.6667 -76.2833 270° West 237 273 10,400 -842 Descending Potomac TRACON
Mon 09:26:58 AM 39.6500 -76.3667 255° West 229 264 9,400 -700 Descending Potomac TRACON
Mon 09:27:58 AM 39.6333 -76.4500 255° West 229 264 9,000 -550 Descending Potomac TRACON
Mon 09:28:58 AM 39.6000 -76.5000 229° Southwest 221 254 8,300 -750 Descending Potomac TRACON
Mon 09:29:58 AM 39.5500 -76.5667 226° Southwest 217 250 7,500 -750 Descending Potomac TRACON
Mon 09:30:58 AM 39.5167 -76.6167 229° Southwest 213 245 6,800 -789 Descending Potomac TRACON
Mon 09:31:52 AM 39.4833 -76.6667 229° Southwest 213 245 6,000 -1,000 Descending Potomac TRACON
Mon 09:32:52 AM 39.4500 -76.7333 237° Southwest 206 237 4,900 -1,053 Descending Potomac TRACON
Mon 09:33:46 AM 39.4167 -76.7833 229° Southwest 197 227 4,000 -474 Descending Potomac TRACON
Mon 09:34:46 AM 39.4000 -76.8333 247° West 164 189 4,000  Level Potomac TRACON
Mon 09:35:46 AM 39.3667 -76.8833 229° Southwest 166 191 4,000  Level Potomac TRACON
Mon 09:36:46 AM 39.3500 -76.9167 237° Southwest 158 182 4,000  Level Potomac TRACON
Mon 09:37:40 AM 39.3167 -76.9500 218° Southwest 152 175 4,000 -316 Level Potomac TRACON
Mon 09:38:40 AM 39.2667 -76.9500 180° South 155 178 3,400 -500 Descending Potomac TRACON
Mon 09:39:40 AM 39.2333 -76.9500 180° South 149 171 3,000 -209 Descending Potomac TRACON
Mon 09:40:35 AM 39.2000 -76.9000 131° Southeast 158 182 3,000 -149 Level Potomac TRACON
Mon 09:41:41 AM 39.1833 -76.8500 113° Southeast 165 190 2,700 -571 Descending Potomac TRACON
Mon 09:42:41 AM 39.1833 -76.8000 90° East 157 181 1,800 -783 Descending Potomac TRACON
Mon 09:43:36 AM 39.1833 -76.7500 90° East 135 155 1,200 -678 Descending Potomac TRACON
Mon 09:44:36 AM 39.1833 -76.7000 90° East 134 154 500 -700 Descending Potomac TRACON

Login

Don't have an account? Register now (free) for customized features, flight alerts, and more!